createdAt,value
2022-08-20T00:04:22.522Z,28.64
2022-08-20T00:09:24.505Z,28.71
2022-08-20T00:14:26.620Z,28.89
2022-08-20T00:19:29.424Z,28.84
2022-08-20T00:24:31.446Z,28.98
2022-08-20T00:29:33.266Z,28.97
2022-08-20T00:34:35.284Z,29.00
2022-08-20T00:39:37.436Z,29.01
2022-08-20T00:44:46.636Z,29.01
2022-08-20T00:49:48.576Z,28.91
2022-08-20T00:54:55.194Z,28.99
2022-08-20T00:59:58.818Z,28.96
2022-08-20T01:05:01.637Z,28.98
2022-08-20T01:10:09.126Z,29.00
2022-08-20T01:15:15.095Z,29.05
2022-08-20T01:20:26.700Z,29.01
2022-08-20T01:25:37.778Z,29.03
2022-08-20T01:30:39.790Z,29.01
2022-08-20T01:35:42.960Z,28.98
2022-08-20T01:41:19.216Z,28.95
2022-08-20T01:46:35.677Z,29.02
2022-08-20T01:51:39.300Z,28.96
2022-08-20T01:56:53.200Z,29.01
2022-08-20T02:01:55.743Z,29.07
2022-08-20T02:07:00.531Z,28.98
2022-08-20T02:12:04.125Z,29.06
2022-08-20T02:17:07.594Z,28.98
2022-08-20T02:22:18.784Z,28.97
2022-08-20T02:27:24.142Z,28.98
2022-08-20T02:32:33.819Z,28.96
2022-08-20T02:37:37.836Z,28.99
2022-08-20T02:42:42.321Z,29.02
2022-08-20T02:47:45.773Z,28.97
2022-08-20T02:52:51.864Z,28.94
2022-08-20T02:58:00.274Z,29.00
2022-08-20T03:03:03.240Z,28.98
2022-08-20T03:08:07.706Z,28.94
2022-08-20T03:13:13.054Z,29.04
2022-08-20T03:18:16.734Z,28.99
2022-08-20T03:23:20.719Z,28.96
2022-08-20T03:28:22.905Z,28.98
2022-08-20T03:33:24.879Z,29.02
2022-08-20T03:38:33.189Z,28.98
2022-08-20T03:43:35.915Z,28.99
2022-08-20T03:48:39.976Z,29.05
2022-08-20T03:53:42.134Z,29.01
2022-08-20T03:58:44.127Z,28.95
2022-08-20T04:03:49.995Z,28.91
2022-08-20T04:08:54.276Z,28.93
2022-08-20T04:13:56.207Z,28.97
2022-08-20T04:19:02.298Z,28.97
2022-08-20T04:24:06.483Z,28.96
2022-08-20T04:29:08.581Z,29.02
2022-08-20T04:34:10.444Z,28.96
2022-08-20T04:39:12.408Z,28.94
2022-08-20T04:44:14.438Z,28.96
2022-08-20T04:49:16.648Z,28.90
2022-08-20T04:54:18.408Z,28.96
2022-08-20T04:59:20.119Z,28.95
2022-08-20T05:04:21.977Z,29.00
2022-08-20T05:09:24.190Z,28.94
2022-08-20T05:14:26.538Z,28.94
2022-08-20T05:19:29.271Z,28.92
2022-08-20T05:24:31.397Z,28.92
2022-08-20T05:29:33.335Z,28.85
2022-08-20T05:34:35.123Z,28.95
2022-08-20T05:39:37.616Z,28.91
2022-08-20T05:44:39.677Z,28.93
2022-08-20T05:49:41.903Z,28.91
2022-08-20T05:54:46.475Z,28.86
2022-08-20T05:59:48.641Z,28.87
2022-08-20T06:04:56.070Z,28.79
2022-08-20T06:09:58.317Z,28.80
2022-08-20T06:15:00.238Z,28.74
2022-08-20T06:20:07.126Z,28.81
2022-08-20T06:25:10.417Z,28.84
2022-08-20T06:30:14.459Z,28.78
2022-08-20T06:35:19.897Z,28.73
2022-08-20T06:40:25.055Z,28.72
2022-08-20T06:45:32.628Z,28.72
2022-08-20T06:50:47.011Z,28.71
2022-08-20T06:55:53.700Z,28.81
2022-08-20T07:00:55.580Z,28.82
2022-08-20T07:05:57.792Z,28.78
2022-08-20T07:10:59.964Z,28.77
2022-08-20T07:16:02.070Z,28.66
2022-08-20T07:21:04.001Z,28.64
2022-08-20T07:26:08.205Z,28.55
2022-08-20T07:31:28.653Z,28.51
2022-08-20T07:36:33.526Z,28.52
2022-08-20T07:41:35.422Z,27.43
2022-08-20T07:46:37.116Z,27.96
2022-08-20T07:51:38.953Z,28.01
2022-08-20T07:56:40.727Z,27.17
2022-08-20T08:01:42.455Z,26.20
2022-08-20T08:06:45.626Z,26.17
2022-08-20T08:11:50.546Z,26.59
2022-08-20T08:16:58.213Z,26.52
2022-08-20T08:22:00.363Z,26.44
2022-08-20T08:27:02.156Z,26.47
2022-08-20T08:32:05.794Z,26.25
2022-08-20T08:37:07.938Z,25.98
2022-08-20T08:42:38.885Z,26.09
2022-08-20T08:47:45.437Z,26.27
2022-08-20T08:52:52.257Z,26.54
2022-08-20T08:57:56.909Z,26.63
2022-08-20T09:03:07.421Z,26.71
2022-08-20T09:08:16.819Z,26.64
2022-08-20T09:13:19.749Z,26.53
2022-08-20T09:18:21.829Z,26.87
2022-08-20T09:23:24.016Z,26.75
2022-08-20T09:28:32.271Z,26.95
2022-08-20T09:33:34.788Z,27.45
2022-08-20T09:38:36.670Z,26.83
2022-08-20T09:43:38.449Z,26.74
2022-08-20T09:48:40.254Z,26.80
2022-08-20T09:53:43.061Z,26.81
2022-08-20T09:58:53.601Z,26.54
2022-08-20T10:03:55.647Z,26.84
2022-08-20T10:08:57.620Z,27.32
2022-08-20T10:13:59.766Z,27.36
2022-08-20T10:19:02.181Z,27.37
2022-08-20T10:24:04.291Z,27.43
2022-08-20T10:29:06.277Z,27.00
2022-08-20T10:34:08.094Z,26.88
2022-08-20T10:39:10.295Z,27.29
2022-08-20T10:44:12.131Z,26.89
2022-08-20T10:49:14.158Z,26.92
2022-08-20T10:54:15.928Z,26.99
2022-08-20T10:59:17.908Z,26.90
2022-08-20T11:04:19.959Z,26.50
2022-08-20T11:09:22.068Z,26.66
2022-08-20T11:14:24.090Z,26.71
2022-08-20T11:19:25.882Z,26.65
2022-08-20T11:24:27.822Z,26.67
2022-08-20T11:29:33.914Z,27.14
2022-08-20T11:34:35.902Z,27.01
2022-08-20T11:39:41.687Z,26.73
2022-08-20T11:44:43.943Z,26.87
2022-08-20T11:49:46.045Z,27.07
2022-08-20T11:54:50.842Z,27.00
2022-08-20T11:59:58.887Z,27.11
2022-08-20T12:05:00.866Z,27.22
2022-08-20T12:10:03.854Z,27.14
2022-08-20T12:15:07.781Z,27.53
2022-08-20T12:20:12.300Z,27.73
2022-08-20T12:25:14.241Z,27.93
2022-08-20T12:30:20.008Z,27.85
2022-08-20T12:35:22.285Z,27.90
2022-08-20T12:40:32.000Z,27.96
2022-08-20T12:45:36.312Z,27.93
2022-08-20T12:50:40.717Z,27.97
2022-08-20T12:55:42.522Z,27.93
2022-08-20T13:00:50.721Z,27.93
2022-08-20T13:05:53.043Z,27.99
2022-08-20T13:10:54.886Z,28.11
2022-08-20T13:15:56.658Z,28.04
2022-08-20T13:20:58.383Z,28.14
2022-08-20T13:26:00.195Z,28.03
2022-08-20T13:31:04.965Z,28.13
2022-08-20T13:36:07.098Z,28.16
2022-08-20T13:41:09.014Z,28.17
2022-08-20T13:46:11.051Z,28.09
2022-08-20T13:51:16.002Z,28.07
2022-08-20T13:56:21.084Z,28.07
2022-08-20T14:01:23.174Z,28.07
2022-08-20T14:06:25.450Z,28.09
2022-08-20T14:11:27.469Z,28.00
2022-08-20T14:16:33.330Z,28.10
2022-08-20T14:21:38.697Z,28.08
2022-08-20T14:26:40.605Z,28.27
2022-08-20T14:31:42.687Z,28.28
2022-08-20T14:36:44.465Z,28.31
2022-08-20T14:41:49.859Z,28.33
2022-08-20T14:46:51.825Z,28.28
2022-08-20T14:51:53.913Z,28.35
2022-08-20T14:57:01.899Z,28.34
2022-08-20T15:02:09.312Z,28.36
2022-08-20T15:07:37.284Z,28.21
2022-08-20T15:12:39.926Z,28.24
2022-08-20T15:17:47.874Z,28.25
2022-08-20T15:22:51.098Z,28.26
2022-08-20T15:28:00.878Z,28.24
2022-08-20T15:33:03.998Z,28.24
2022-08-20T15:38:05.993Z,28.20
2022-08-20T15:43:08.042Z,28.16
2022-08-20T15:48:18.108Z,28.13
2022-08-20T15:53:39.541Z,28.12
2022-08-20T15:59:21.197Z,28.14
2022-08-20T16:04:28.659Z,28.17
2022-08-20T16:09:51.960Z,28.15
2022-08-20T16:14:59.875Z,28.17
2022-08-20T16:20:17.849Z,28.08
2022-08-20T16:25:24.250Z,28.13
2022-08-20T16:30:39.488Z,28.09
2022-08-20T16:36:30.586Z,28.06
2022-08-20T16:41:38.613Z,28.10
2022-08-20T16:46:49.455Z,28.06
2022-08-20T16:51:52.586Z,28.08
2022-08-20T16:57:04.191Z,28.03
2022-08-20T17:02:10.759Z,28.07
2022-08-20T17:07:12.990Z,28.00
2022-08-20T17:12:28.056Z,28.02
2022-08-20T17:17:35.841Z,28.03
2022-08-20T17:22:47.124Z,28.09
2022-08-20T17:27:49.519Z,28.03
2022-08-20T17:32:58.362Z,28.02
2022-08-20T17:38:02.123Z,28.07
2022-08-20T17:43:09.478Z,28.03
2022-08-20T17:48:15.003Z,28.01
2022-08-20T17:53:23.778Z,27.93
2022-08-20T17:58:52.570Z,28.09
2022-08-20T18:03:57.032Z,27.95
2022-08-20T18:08:58.888Z,27.91
2022-08-20T18:14:17.762Z,27.98
2022-08-20T18:19:37.784Z,27.96
2022-08-20T18:24:54.015Z,27.88
2022-08-20T18:29:59.179Z,27.92
2022-08-20T18:35:22.575Z,27.81
2022-08-20T18:40:33.180Z,28.03
2022-08-20T18:45:36.999Z,27.98
2022-08-20T18:50:38.893Z,27.92
2022-08-20T18:56:00.095Z,27.46
2022-08-20T19:01:07.900Z,27.23
2022-08-20T19:06:15.608Z,26.94
2022-08-20T19:11:44.709Z,26.85
2022-08-20T19:16:55.578Z,26.79
2022-08-20T19:21:57.688Z,27.32
2022-08-20T19:27:02.740Z,26.92
2022-08-20T19:32:08.665Z,26.66
2022-08-20T19:37:35.229Z,26.73
2022-08-20T19:42:43.156Z,26.59
2022-08-20T19:48:14.173Z,27.45
2022-08-20T19:53:30.499Z,27.68
2022-08-20T19:58:34.649Z,27.74
2022-08-20T20:03:38.159Z,27.73
2022-08-20T20:08:50.636Z,27.78
2022-08-20T20:13:52.863Z,27.78
2022-08-20T20:19:15.674Z,27.75
2022-08-20T20:24:27.099Z,27.73
2022-08-20T20:29:35.805Z,27.77
2022-08-20T20:34:54.897Z,27.82
2022-08-20T20:40:08.374Z,27.81
2022-08-20T20:45:21.022Z,27.81
2022-08-20T20:50:34.163Z,27.78
2022-08-20T20:55:38.338Z,27.86
2022-08-20T21:00:40.399Z,27.91
2022-08-20T21:05:42.630Z,27.85
2022-08-20T21:10:44.862Z,27.83
2022-08-20T21:15:46.924Z,27.89
2022-08-20T21:20:51.243Z,27.83
2022-08-20T21:25:53.468Z,27.84
2022-08-20T21:30:58.497Z,27.83
2022-08-20T21:36:00.782Z,27.90
2022-08-20T21:41:02.948Z,27.88
2022-08-20T21:46:05.303Z,27.89
2022-08-20T21:51:07.649Z,27.80
2022-08-20T21:56:10.612Z,27.90
2022-08-20T22:01:13.217Z,27.88
2022-08-20T22:06:15.166Z,27.89
2022-08-20T22:11:17.632Z,27.88
2022-08-20T22:16:21.900Z,27.82
2022-08-20T22:21:27.361Z,27.87
2022-08-20T22:26:30.499Z,27.84
2022-08-20T22:31:34.915Z,27.88
2022-08-20T22:36:36.981Z,27.88
2022-08-20T22:41:39.261Z,27.84
2022-08-20T22:46:47.359Z,27.82
2022-08-20T22:51:50.141Z,27.88
2022-08-20T22:56:53.879Z,27.91
2022-08-20T23:01:55.841Z,27.81
2022-08-20T23:06:58.410Z,27.85
2022-08-20T23:12:00.263Z,27.93
2022-08-20T23:17:10.110Z,27.81
2022-08-20T23:22:14.777Z,27.83
2022-08-20T23:27:19.010Z,27.83
2022-08-20T23:32:21.106Z,27.84
2022-08-20T23:37:23.372Z,27.81
2022-08-20T23:42:25.417Z,27.82
2022-08-20T23:47:28.388Z,27.77
2022-08-20T23:52:30.655Z,27.87
2022-08-20T23:57:32.902Z,27.84
